This is the latest recevied weather packets stored in our database for station/object KF7SOJ. If no packets are shown the sender has not sent any weather packets the latest 10 day(s).
| Time | Temp. | Humidity | Pressure | Rain* | Wind** | Luminosity | Snow |
|---|---|---|---|---|---|---|---|
| 1778019795 | 9.44° C | 33% | 932.9 hPa | 0 mm | - | 812 W/m² | - |
| 1778019493 | 9.44° C | 32% | 932.9 hPa | 0 mm | - | 294 W/m² | - |
| 1778019189 | 9.44° C | 32% | 932.8 hPa | 0 mm | - | 793 W/m² | - |
| 1778018886 | 9.44° C | 33% | 932.9 hPa | 0 mm | - | 774 W/m² | - |
| 1778018583 | 10° C | 32% | 932.8 hPa | 0 mm | - | 864 W/m² | - |
| 1778018281 | 10° C | 33% | 932.9 hPa | 0 mm | - | 735 W/m² | - |
| 1778017979 | 10° C | 29% | 932.8 hPa | 0 mm | - | 877 W/m² | - |
| 1778017676 | 10° C | 31% | 932.9 hPa | 0 mm | - | 798 W/m² | - |
| 1778017374 | 10° C | 33% | 933 hPa | 0 mm | - | 950 W/m² | - |
| 1778017071 | 10° C | 30% | 932.8 hPa | 0 mm | - | 969 W/m² | - |
| 1778016768 | 10° C | 30% | 933 hPa | 0 mm | - | 945 W/m² | - |
| 1778016463 | 9.44° C | 32% | 932.9 hPa | 0 mm | - | 957 W/m² | - |
| 1778016162 | 10.56° C | 31% | 933 hPa | 0 mm | - | 691 W/m² | - |
| 1778015858 | 10.56° C | 33% | 933 hPa | 0 mm | - | 960 W/m² | - |
| 1778015556 | 10° C | 32% | 933 hPa | 0 mm | - | 943 W/m² | - |
| 1778015252 | 9.44° C | 33% | 932.9 hPa | 0 mm | - | 1049 W/m² | - |
| 1778014948 | 9.44° C | 33% | 932.8 hPa | 0 mm | - | 435 W/m² | - |
| 1778014646 | 8.89° C | 35% | 933.1 hPa | 0 mm | - | 546 W/m² | - |
| 1778014344 | 10° C | 33% | 932.8 hPa | 0 mm | - | 290 W/m² | - |
| 1778014040 | 10° C | 32% | 933 hPa | 0 mm | - | 1014 W/m² | - |
| 1778013738 | 10° C | 32% | 933.1 hPa | 0 mm | - | 987 W/m² | - |
| 1778013435 | 8.89° C | 35% | 933.2 hPa | 0 mm | - | 1002 W/m² | - |
| 1778013132 | 8.89° C | 35% | 933.1 hPa | 0 mm | - | 1002 W/m² | - |
| 1778012828 | 10° C | 34% | 933 hPa | 0 mm | - | 1066 W/m² | - |
| 1778012524 | 10° C | 34% | 932.9 hPa | 0 mm | - | 1066 W/m² | - |
* Rain latest hour (hover to see other rain measurements)
** Current wind speed in m/s (hover to see current wind gust speed)